map of ACZ home
ACZ - Airport
Location
City:  Zabol, Sistan va Baluchestan, Iran
ICAO:OIZB
IATA:ACZ

Details
Type:Airport (Aerodrome, Airfield)
Latitude:3105'54"N (31.098333)
Longitude:6132'38"E (61.543889)
Datum:WGS 1984
Elevation:1628 ft (496 m)
Variation:2.81E (WMM2015 magnetic declination)
0.05 annual change
Runways:1
Longest:9848 × 148 ft (3002 × 45 m), paved

Time
Time Zone:UTC+3:30 (DST+4:30)
Local Time:

Weather
METAR:OIZB 101200Z 35008KT CAVOK 20/M01 Q1016

Related Locations
Nearby:
Farthest:IPC: 11833 mi / 19043 km
Easter Island (Isla de Pascua, Rapa Nui) [Mataveri Intl], VS, CL

Find:

   beyond  
but within

Other Information
Maps:
NOTAMs:
Links:
Sources:

  
  • flag of Iran
  

Sectional Chart

Flight Planning
at skyvector.com

Satellite Image

Google Maps Satellite view

 

Copyright © 2004-2018 Karl L. Swartz. All rights reserved.
The Great Circle Mapper name and logo are trademarks of the Great Circle Mapper.
All other trademarks mentioned herein belong to their respective owners.
Please see credits for attibutions and further copyright information.

  Follow gcmap on Facebook Follow gcmap on Twitter Follow gcmap on Google+ GCmap on LinkedIn

hCard Microformat

Geo Microformat